Terminal Aerodrome Forecast
Issued by NWS Cleveland, OH

Home | Current Version | Previous Version | Graphics & Text | Print | Product List | Glossary Off
Versions: 1 2 3 4 5 6 7 8 9 10 11 12 13 14 15 16 17 18 19 20 21 22

000
FTUS41 KCLE 181240 AAA
TAFTOL
TAF AMD
KTOL 181240Z 1813/1912 24008KT P6SM SCT035
      TEMPO 1815/1817 BKN035
     FM181700 27015G25KT P6SM BKN045
     FM182200 25006KT P6SM SCT200
     FM190700 23006KT P6SM SCT100 OVC200
     FM191000 23006KT 5SM -SHRA OVC040=

USA.gov is the U.S. government's official web portal to all federal, state and local government web resources and services.